createdAt,value
2022-08-24T00:00:40.328Z,24.55
2022-08-24T00:01:48.163Z,24.65
2022-08-24T00:02:56.596Z,25.07
2022-08-24T00:04:04.407Z,25.30
2022-08-24T00:05:16.056Z,25.16
2022-08-24T00:06:27.399Z,24.59
2022-08-24T00:07:35.719Z,24.86
2022-08-24T00:08:44.538Z,25.30
2022-08-24T00:09:52.363Z,24.15
2022-08-24T00:11:00.910Z,24.57
2022-08-24T00:12:10.185Z,25.20
2022-08-24T00:13:23.482Z,25.59
2022-08-24T00:14:36.078Z,25.47
2022-08-24T00:15:43.975Z,25.86
2022-08-24T00:16:51.624Z,26.04
2022-08-24T00:17:59.993Z,26.40
2022-08-24T00:19:10.091Z,26.10
2022-08-24T00:20:20.093Z,25.66
2022-08-24T00:21:32.942Z,26.19
2022-08-24T00:22:45.559Z,26.28
2022-08-24T00:23:53.295Z,25.86
2022-08-24T00:25:03.310Z,25.75
2022-08-24T00:26:11.971Z,26.20
2022-08-24T00:27:20.789Z,26.61
2022-08-24T00:28:31.085Z,27.02
2022-08-24T00:29:39.703Z,26.89
2022-08-24T00:30:46.908Z,27.63
2022-08-24T00:31:57.953Z,28.10
2022-08-24T00:33:09.520Z,28.29
2022-08-24T00:34:19.617Z,28.07
2022-08-24T00:35:28.400Z,28.22
2022-08-24T00:36:37.673Z,28.34
2022-08-24T00:37:49.393Z,28.31
2022-08-24T00:38:57.857Z,28.22
2022-08-24T00:40:10.810Z,28.41
2022-08-24T00:41:20.249Z,28.40
2022-08-24T00:42:30.712Z,28.62
2022-08-24T00:43:39.236Z,28.69
2022-08-24T00:44:47.622Z,28.66
2022-08-24T00:46:20.958Z,28.72
2022-08-24T00:47:35.015Z,28.90
2022-08-24T00:48:46.373Z,29.43
2022-08-24T00:50:03.775Z,29.58
2022-08-24T00:51:19.614Z,29.47
2022-08-24T00:52:40.898Z,29.60
2022-08-24T00:54:01.691Z,29.74
2022-08-24T00:55:39.653Z,29.70
2022-08-24T00:56:50.242Z,29.60
2022-08-24T00:58:11.272Z,29.89
2022-08-24T00:59:29.098Z,29.72
2022-08-24T01:00:48.407Z,29.88
2022-08-24T01:02:01.239Z,30.23
2022-08-24T01:03:27.867Z,30.32
2022-08-24T01:04:41.397Z,30.25
2022-08-24T01:05:52.068Z,30.07
2022-08-24T01:07:02.044Z,30.13
2022-08-24T01:08:12.762Z,30.43
2022-08-24T01:09:22.272Z,30.77
2022-08-24T01:10:35.156Z,30.69
2022-08-24T01:11:42.806Z,30.47
2022-08-24T01:13:00.653Z,30.55
2022-08-24T01:14:10.458Z,30.83
2022-08-24T01:15:26.546Z,31.17
2022-08-24T01:16:55.294Z,31.21
2022-08-24T01:18:23.050Z,31.09
2022-08-24T01:19:51.531Z,31.20
2022-08-24T01:21:19.735Z,31.52
2022-08-24T01:22:36.906Z,31.87
2022-08-24T01:24:16.582Z,32.18
2022-08-24T01:25:24.985Z,32.45
2022-08-24T01:26:58.785Z,32.50
2022-08-24T01:28:09.731Z,32.54
2022-08-24T01:29:21.435Z,32.54
2022-08-24T01:30:36.368Z,32.38
2022-08-24T01:31:45.035Z,32.41
2022-08-24T01:33:02.001Z,32.37
2022-08-24T01:34:14.661Z,32.57
2022-08-24T01:35:26.170Z,32.56
2022-08-24T01:36:55.882Z,32.54
2022-08-24T01:38:11.822Z,32.60
2022-08-24T01:39:45.591Z,32.70
2022-08-24T01:40:59.704Z,32.83
2022-08-24T01:42:10.869Z,32.86
2022-08-24T01:43:19.976Z,32.92
2022-08-24T01:44:32.820Z,32.93
2022-08-24T01:45:41.273Z,33.04
2022-08-24T01:46:51.930Z,33.14
2022-08-24T01:48:06.444Z,33.35
2022-08-24T01:49:16.885Z,33.31
2022-08-24T01:50:31.387Z,33.87
2022-08-24T01:51:40.673Z,34.12
2022-08-24T01:53:05.767Z,34.24
2022-08-24T01:54:14.945Z,34.43
2022-08-24T01:55:28.471Z,34.77
2022-08-24T01:56:38.424Z,35.07
2022-08-24T01:57:48.649Z,35.50
2022-08-24T01:58:59.415Z,35.91
2022-08-24T02:00:13.276Z,36.31
2022-08-24T02:01:25.430Z,36.59
2022-08-24T02:02:37.638Z,36.65
2022-08-24T02:04:00.014Z,37.03
2022-08-24T02:05:12.413Z,37.46
2022-08-24T02:06:21.817Z,37.60
2022-08-24T02:07:34.138Z,37.93
2022-08-24T02:08:42.081Z,38.35
2022-08-24T02:09:56.703Z,38.64
2022-08-24T02:11:10.051Z,38.54
2022-08-24T02:12:19.467Z,38.64
2022-08-24T02:13:29.210Z,39.14
2022-08-24T02:14:37.848Z,39.13
2022-08-24T02:15:45.850Z,39.34
2022-08-24T02:16:56.883Z,39.86
2022-08-24T02:18:08.305Z,40.46
2022-08-24T02:19:25.564Z,40.99
2022-08-24T02:20:34.358Z,41.35
2022-08-24T02:21:41.956Z,41.65
2022-08-24T02:22:53.249Z,42.06
2022-08-24T02:24:02.349Z,42.27
2022-08-24T02:25:11.118Z,42.50
2022-08-24T02:26:23.552Z,42.81
2022-08-24T02:27:39.962Z,43.17
2022-08-24T02:28:49.087Z,43.39
2022-08-24T02:29:56.972Z,43.51
2022-08-24T02:31:07.243Z,43.64
2022-08-24T02:32:18.450Z,44.18
2022-08-24T02:33:28.225Z,44.25
2022-08-24T02:34:38.275Z,44.56
2022-08-24T02:35:48.751Z,44.95
2022-08-24T02:36:58.188Z,45.11
2022-08-24T02:38:06.738Z,45.16
2022-08-24T02:39:15.690Z,45.41
2022-08-24T02:40:30.165Z,45.64
2022-08-24T02:41:42.267Z,46.04
2022-08-24T02:42:51.905Z,46.25
2022-08-24T02:44:05.389Z,46.30
2022-08-24T02:45:16.195Z,46.55
2022-08-24T02:46:29.274Z,46.87
2022-08-24T02:47:38.883Z,47.17
2022-08-24T02:48:47.238Z,47.55
2022-08-24T02:50:19.291Z,47.90
2022-08-24T02:51:38.870Z,48.21
2022-08-24T02:53:04.947Z,48.27
2022-08-24T02:54:13.531Z,48.41
2022-08-24T02:55:24.977Z,48.49
2022-08-24T02:56:35.601Z,48.42
2022-08-24T02:57:44.795Z,49.02
2022-08-24T02:58:54.473Z,49.15
2022-08-24T03:00:10.068Z,49.06
2022-08-24T03:01:30.228Z,49.47
2022-08-24T03:02:42.324Z,49.27
2022-08-24T03:03:50.502Z,49.07
2022-08-24T03:04:59.117Z,49.71
2022-08-24T03:06:08.958Z,49.91
2022-08-24T03:07:18.811Z,50.02
2022-08-24T03:08:30.567Z,50.05
2022-08-24T03:09:44.231Z,49.96
2022-08-24T03:10:52.710Z,50.02
2022-08-24T03:12:02.505Z,50.16
2022-08-24T03:13:11.597Z,50.10
2022-08-24T03:14:21.093Z,50.27
2022-08-24T03:15:29.238Z,50.47
2022-08-24T03:16:38.266Z,50.50
2022-08-24T03:17:46.185Z,50.58
2022-08-24T03:18:59.139Z,51.06
2022-08-24T03:20:14.107Z,51.42
2022-08-24T03:21:24.423Z,51.62
2022-08-24T03:22:34.101Z,51.21
2022-08-24T03:23:43.135Z,51.40
2022-08-24T03:24:52.244Z,51.74
2022-08-24T03:26:01.471Z,51.65
2022-08-24T03:27:11.197Z,51.73
2022-08-24T03:28:25.156Z,52.00
2022-08-24T03:29:35.019Z,52.48
2022-08-24T03:30:46.809Z,52.58
2022-08-24T03:31:59.726Z,52.28
2022-08-24T03:33:14.265Z,52.37
2022-08-24T03:34:24.023Z,52.72
2022-08-24T03:35:33.166Z,52.80
2022-08-24T03:36:48.091Z,52.84
2022-08-24T03:37:57.606Z,53.24
2022-08-24T03:39:06.659Z,53.71
2022-08-24T03:40:22.311Z,53.59
2022-08-24T03:41:36.728Z,53.67
2022-08-24T03:42:43.740Z,53.82
2022-08-24T03:43:53.974Z,54.20
2022-08-24T03:45:03.817Z,54.32
2022-08-24T03:46:13.533Z,54.41
2022-08-24T03:47:24.343Z,54.31
2022-08-24T03:48:32.741Z,54.61
2022-08-24T03:49:40.948Z,54.79
2022-08-24T03:50:48.418Z,55.08
2022-08-24T03:51:57.741Z,55.20
2022-08-24T03:53:05.928Z,55.10
2022-08-24T03:54:15.895Z,55.09
2022-08-24T03:55:23.309Z,55.23
2022-08-24T03:56:31.400Z,55.24
2022-08-24T03:57:39.254Z,55.32
2022-08-24T03:58:48.261Z,55.47
2022-08-24T03:59:58.210Z,55.46
2022-08-24T04:01:07.736Z,55.69
2022-08-24T04:02:16.325Z,56.17
2022-08-24T04:03:24.705Z,56.45
2022-08-24T04:04:35.546Z,56.45
2022-08-24T04:05:43.845Z,56.47
2022-08-24T04:06:54.141Z,56.68
2022-08-24T04:08:06.364Z,56.63
2022-08-24T04:09:16.087Z,56.57
2022-08-24T04:10:30.380Z,56.30
2022-08-24T04:11:41.139Z,56.86
2022-08-24T04:12:50.129Z,57.57
2022-08-24T04:14:04.228Z,57.67
2022-08-24T04:15:11.683Z,57.34
2022-08-24T04:16:22.325Z,57.45
2022-08-24T04:17:35.386Z,57.67
2022-08-24T04:18:44.424Z,58.03
2022-08-24T04:20:04.776Z,58.03
2022-08-24T04:21:21.763Z,57.81
2022-08-24T04:22:31.139Z,57.86
2022-08-24T04:23:47.735Z,57.88
2022-08-24T04:24:58.053Z,57.82
2022-08-24T04:26:08.491Z,57.94
2022-08-24T04:27:17.437Z,58.15
2022-08-24T04:28:25.269Z,58.21
2022-08-24T04:29:37.160Z,58.60
2022-08-24T04:30:44.846Z,58.87
2022-08-24T04:31:55.002Z,58.66
2022-08-24T04:33:02.714Z,58.40
2022-08-24T04:34:11.543Z,58.65
2022-08-24T04:35:19.753Z,58.78
2022-08-24T04:36:28.785Z,58.92
2022-08-24T04:37:37.188Z,59.14
2022-08-24T04:38:44.942Z,59.25
2022-08-24T04:40:01.238Z,59.22
2022-08-24T04:41:16.409Z,59.36
2022-08-24T04:42:36.335Z,59.87
2022-08-24T04:43:47.401Z,60.06
2022-08-24T04:44:56.956Z,60.32
2022-08-24T04:46:09.669Z,60.49
2022-08-24T04:47:18.053Z,60.42
2022-08-24T04:48:28.155Z,60.43
2022-08-24T04:49:39.117Z,60.25
2022-08-24T04:50:49.395Z,60.39
2022-08-24T04:51:57.649Z,60.84
2022-08-24T04:53:07.353Z,61.41
2022-08-24T04:54:16.184Z,61.74
2022-08-24T04:55:27.907Z,61.41
2022-08-24T04:56:37.380Z,61.24
2022-08-24T04:57:46.650Z,61.27
2022-08-24T04:58:54.896Z,61.62
2022-08-24T05:00:04.284Z,61.98
2022-08-24T05:01:16.654Z,62.33
2022-08-24T05:02:24.976Z,62.76
2022-08-24T05:03:34.331Z,63.04
2022-08-24T05:04:43.056Z,63.30
2022-08-24T05:05:52.838Z,63.30
2022-08-24T05:07:00.131Z,63.01
2022-08-24T05:08:08.083Z,62.77
2022-08-24T05:09:16.384Z,62.66
2022-08-24T05:10:29.257Z,62.50
2022-08-24T05:11:49.742Z,62.98
2022-08-24T05:13:02.606Z,63.45
2022-08-24T05:14:11.254Z,63.77
2022-08-24T05:15:19.178Z,63.26
2022-08-24T05:16:28.555Z,63.38
2022-08-24T05:17:38.612Z,63.54
2022-08-24T05:18:47.901Z,63.68
2022-08-24T05:20:00.157Z,63.71
2022-08-24T05:21:13.034Z,63.56
2022-08-24T05:22:22.683Z,63.51
2022-08-24T05:23:34.848Z,63.43
2022-08-24T05:24:42.861Z,63.47
2022-08-24T05:25:52.192Z,63.49
2022-08-24T05:27:01.761Z,63.63
2022-08-24T05:28:12.329Z,63.71
2022-08-24T05:29:20.952Z,63.53
2022-08-24T05:30:32.275Z,63.62
2022-08-24T05:31:41.155Z,63.56
2022-08-24T05:32:51.488Z,63.66
2022-08-24T05:34:01.267Z,63.94
2022-08-24T05:35:12.835Z,63.88
2022-08-24T05:36:30.389Z,63.96
2022-08-24T05:37:39.591Z,63.93
2022-08-24T05:38:55.959Z,63.76
2022-08-24T05:40:08.708Z,64.17
2022-08-24T05:41:19.558Z,64.33
2022-08-24T05:42:28.672Z,64.12
2022-08-24T05:43:37.381Z,64.46
2022-08-24T05:44:45.072Z,64.06
2022-08-24T05:45:54.343Z,63.85
2022-08-24T05:47:04.401Z,64.33
2022-08-24T05:48:11.601Z,64.71
2022-08-24T05:49:41.721Z,64.90
2022-08-24T05:51:04.305Z,64.89
2022-08-24T05:52:15.906Z,65.31
2022-08-24T05:53:27.983Z,65.49
2022-08-24T05:54:43.147Z,65.20
2022-08-24T05:55:56.595Z,65.87
2022-08-24T05:57:06.302Z,66.11
2022-08-24T05:58:30.699Z,66.27
2022-08-24T05:59:43.148Z,66.31
2022-08-24T06:00:55.412Z,66.34
2022-08-24T06:02:05.602Z,66.21
2022-08-24T06:03:16.175Z,66.04
2022-08-24T06:04:31.018Z,66.54
2022-08-24T06:05:44.646Z,66.08
2022-08-24T06:06:55.032Z,65.97
2022-08-24T06:08:05.990Z,65.73
2022-08-24T06:09:14.490Z,65.68
2022-08-24T06:10:39.960Z,66.05
2022-08-24T06:11:51.243Z,66.28
2022-08-24T06:12:59.729Z,66.56
2022-08-24T06:14:15.522Z,66.54
2022-08-24T06:15:35.498Z,66.83
2022-08-24T06:16:44.783Z,66.73
2022-08-24T06:17:54.296Z,66.67
2022-08-24T06:19:03.191Z,66.78
2022-08-24T06:20:12.383Z,66.77
2022-08-24T06:21:25.082Z,66.90
2022-08-24T06:22:38.113Z,67.35
2022-08-24T06:23:48.618Z,67.20
2022-08-24T06:25:19.666Z,67.50
2022-08-24T06:26:50.128Z,67.55
2022-08-24T06:27:59.256Z,67.38
2022-08-24T06:29:09.707Z,67.40
2022-08-24T06:30:30.239Z,67.35
2022-08-24T06:31:54.433Z,67.01
2022-08-24T06:33:04.897Z,67.39
2022-08-24T06:34:28.031Z,67.26
2022-08-24T06:35:37.441Z,67.42
2022-08-24T06:36:46.406Z,67.60
2022-08-24T06:37:56.028Z,67.70
2022-08-24T06:39:05.892Z,67.98
2022-08-24T06:40:15.067Z,68.02
2022-08-24T06:41:25.520Z,68.49
2022-08-24T06:42:36.376Z,68.08
2022-08-24T06:43:59.949Z,68.15
2022-08-24T06:45:27.322Z,68.20
2022-08-24T06:46:38.630Z,68.18
2022-08-24T06:47:46.198Z,68.30
2022-08-24T06:49:02.585Z,68.41
2022-08-24T06:50:10.904Z,68.79
2022-08-24T06:51:24.940Z,69.03
2022-08-24T06:52:34.801Z,68.79
2022-08-24T06:53:44.323Z,68.76
2022-08-24T06:54:55.871Z,68.43
2022-08-24T06:56:04.819Z,68.65
2022-08-24T06:57:14.088Z,68.80
2022-08-24T06:58:21.878Z,68.41
2022-08-24T06:59:30.798Z,68.90
2022-08-24T07:00:38.914Z,68.72
2022-08-24T07:01:47.250Z,68.99
2022-08-24T07:02:57.874Z,68.93
2022-08-24T07:04:08.804Z,68.86
2022-08-24T07:05:59.244Z,69.09
2022-08-24T07:07:24.241Z,69.19
2022-08-24T07:08:34.910Z,69.06
2022-08-24T07:09:43.391Z,69.11
2022-08-24T07:10:53.729Z,68.90
2022-08-24T07:12:04.606Z,68.71
2022-08-24T07:13:13.101Z,68.90
2022-08-24T07:14:21.260Z,69.50
2022-08-24T07:15:30.841Z,69.69
2022-08-24T07:16:47.432Z,69.87
2022-08-24T07:17:57.083Z,69.85
2022-08-24T07:19:07.981Z,69.82
2022-08-24T07:20:15.702Z,69.60
2022-08-24T07:21:44.154Z,70.11
2022-08-24T07:22:54.282Z,70.17
2022-08-24T07:24:04.656Z,70.40
2022-08-24T07:25:15.650Z,70.17
2022-08-24T07:26:24.663Z,70.21
2022-08-24T07:27:35.849Z,70.29
2022-08-24T07:28:43.288Z,70.28
2022-08-24T07:30:00.083Z,70.28
2022-08-24T07:31:19.106Z,70.27
2022-08-24T07:32:33.718Z,70.50
2022-08-24T07:33:41.909Z,70.50
2022-08-24T07:34:49.318Z,71.34
2022-08-24T07:35:57.951Z,70.98
2022-08-24T07:37:06.952Z,70.83
2022-08-24T07:38:17.337Z,71.34
2022-08-24T07:39:27.797Z,71.10
2022-08-24T07:41:01.642Z,71.41
2022-08-24T07:42:13.883Z,71.87
2022-08-24T07:43:27.931Z,71.93
2022-08-24T07:44:39.840Z,71.87
2022-08-24T07:45:47.387Z,71.88
2022-08-24T07:46:54.442Z,71.74
2022-08-24T07:48:04.988Z,71.65
2022-08-24T07:49:36.859Z,71.73
2022-08-24T07:50:48.981Z,71.74
2022-08-24T07:51:56.372Z,71.51
2022-08-24T07:53:09.672Z,71.46
2022-08-24T07:54:24.843Z,71.90
2022-08-24T07:55:35.310Z,72.09
2022-08-24T07:56:55.862Z,72.32
2022-08-24T07:58:05.782Z,72.53
2022-08-24T07:59:15.035Z,72.35
2022-08-24T08:00:24.862Z,72.49
2022-08-24T08:01:37.410Z,72.61
2022-08-24T08:02:48.291Z,72.67
2022-08-24T08:03:55.847Z,72.93
2022-08-24T08:05:05.087Z,73.04
2022-08-24T08:06:16.433Z,73.34
2022-08-24T08:07:28.009Z,73.60
2022-08-24T08:08:40.431Z,73.68
2022-08-24T08:09:48.150Z,73.63
2022-08-24T08:10:58.663Z,73.87
2022-08-24T08:12:08.178Z,73.74
2022-08-24T08:13:17.238Z,73.49
2022-08-24T08:14:26.945Z,73.64
2022-08-24T08:15:36.259Z,73.45
2022-08-24T08:16:48.282Z,73.42
2022-08-24T08:17:56.059Z,73.60
2022-08-24T08:19:10.488Z,73.54
2022-08-24T08:20:21.145Z,73.45
2022-08-24T08:21:48.013Z,73.84
2022-08-24T08:23:14.956Z,74.14
2022-08-24T08:24:49.196Z,73.87
2022-08-24T08:25:59.476Z,73.89
2022-08-24T08:27:30.218Z,73.83
2022-08-24T08:28:38.107Z,73.88
2022-08-24T08:29:46.353Z,74.20
2022-08-24T08:30:57.404Z,73.94
2022-08-24T08:32:07.456Z,73.86
2022-08-24T08:33:15.635Z,73.95
2022-08-24T08:34:23.379Z,74.15
2022-08-24T08:35:31.240Z,74.73
2022-08-24T08:36:41.544Z,74.85
2022-08-24T08:37:49.615Z,74.61
2022-08-24T08:38:57.391Z,74.56
2022-08-24T08:40:06.071Z,74.79
2022-08-24T08:41:39.625Z,74.84
2022-08-24T08:43:12.207Z,74.93
2022-08-24T08:44:43.365Z,75.16
2022-08-24T08:46:22.570Z,75.18
2022-08-24T08:48:41.139Z,75.13
2022-08-24T08:50:21.976Z,75.00
2022-08-24T08:51:54.778Z,75.41
2022-08-24T08:53:41.218Z,75.54
2022-08-24T08:54:54.152Z,75.65
2022-08-24T08:56:19.951Z,75.83
2022-08-24T08:57:41.830Z,75.77
2022-08-24T08:59:02.880Z,75.52
2022-08-24T09:00:28.021Z,75.22
2022-08-24T09:01:47.003Z,75.10
2022-08-24T09:03:12.089Z,75.34
2022-08-24T09:05:07.838Z,75.58
2022-08-24T09:06:36.637Z,75.60
2022-08-24T09:08:05.879Z,75.78
2022-08-24T09:09:28.229Z,75.84
2022-08-24T09:10:55.815Z,75.95
2022-08-24T09:12:40.831Z,75.85
2022-08-24T09:14:00.440Z,75.65
2022-08-24T09:15:57.832Z,75.74
2022-08-24T09:17:35.010Z,76.15
2022-08-24T09:19:19.248Z,76.56
2022-08-24T09:20:46.211Z,76.89
2022-08-24T09:22:16.751Z,77.24
2022-08-24T09:23:52.454Z,77.43
2022-08-24T09:25:27.478Z,77.43
2022-08-24T09:27:14.815Z,77.39
2022-08-24T09:28:39.731Z,77.09
2022-08-24T09:30:44.913Z,77.00
2022-08-24T09:32:01.572Z,77.03
2022-08-24T09:33:10.971Z,76.82
2022-08-24T09:34:38.658Z,76.56
2022-08-24T09:36:05.239Z,76.77
2022-08-24T09:37:43.506Z,77.13
2022-08-24T09:39:10.469Z,76.89
2022-08-24T09:40:39.998Z,76.60
2022-08-24T09:42:25.231Z,76.60
2022-08-24T09:44:20.807Z,76.48
2022-08-24T09:45:29.778Z,76.48
2022-08-24T09:46:52.970Z,76.60
2022-08-24T09:48:16.275Z,76.89
2022-08-24T09:49:45.711Z,77.02
2022-08-24T09:51:03.169Z,77.17
2022-08-24T09:52:47.471Z,77.30
2022-08-24T09:54:07.000Z,77.88
2022-08-24T09:55:27.659Z,77.83
2022-08-24T09:56:53.786Z,77.57
2022-08-24T09:58:26.660Z,77.12
2022-08-24T09:59:42.311Z,76.93
2022-08-24T10:01:20.727Z,76.82
2022-08-24T10:02:41.357Z,76.68
2022-08-24T10:03:56.788Z,76.63
2022-08-24T10:05:41.886Z,76.70
2022-08-24T10:07:01.585Z,76.84
2022-08-24T10:08:41.827Z,76.87
2022-08-24T10:10:07.005Z,76.94
2022-08-24T10:11:14.451Z,76.82
2022-08-24T10:12:42.125Z,76.53
2022-08-24T10:13:53.958Z,76.59
2022-08-24T10:15:33.756Z,76.97
2022-08-24T10:16:46.822Z,77.14
2022-08-24T10:18:35.156Z,77.24
2022-08-24T10:19:59.151Z,77.23
2022-08-24T10:21:16.446Z,77.50
2022-08-24T10:22:44.952Z,77.28
2022-08-24T10:24:12.013Z,77.31
2022-08-24T10:25:43.882Z,77.08
2022-08-24T10:27:11.348Z,76.77
2022-08-24T10:28:23.016Z,76.61
2022-08-24T10:30:00.268Z,76.41
2022-08-24T10:31:26.046Z,76.50
2022-08-24T10:32:59.918Z,76.72
2022-08-24T10:34:29.360Z,76.63
2022-08-24T10:35:46.932Z,76.84
2022-08-24T10:37:02.149Z,76.82
2022-08-24T10:38:54.596Z,76.88
2022-08-24T10:40:29.784Z,76.85
2022-08-24T10:42:35.433Z,77.66
2022-08-24T10:44:02.046Z,76.93
2022-08-24T10:45:48.120Z,76.70
2022-08-24T10:47:18.828Z,76.59
2022-08-24T10:49:03.835Z,76.99
2022-08-24T10:50:54.187Z,77.69
2022-08-24T10:52:39.512Z,77.35
2022-08-24T10:53:54.234Z,77.44
2022-08-24T10:55:23.926Z,77.70
2022-08-24T10:57:10.318Z,77.97
2022-08-24T10:58:40.635Z,78.00
2022-08-24T11:00:23.331Z,77.72
2022-08-24T11:01:34.821Z,77.42
2022-08-24T11:02:43.847Z,77.50
2022-08-24T11:04:15.218Z,77.66
2022-08-24T11:05:32.332Z,77.76
2022-08-24T11:07:04.459Z,77.98
2022-08-24T11:08:25.945Z,78.22
2022-08-24T11:09:47.576Z,78.10
2022-08-24T11:11:17.392Z,78.01
2022-08-24T11:12:45.453Z,78.08
2022-08-24T11:14:00.881Z,78.06
2022-08-24T11:15:30.065Z,77.98
2022-08-24T11:16:42.624Z,78.05
2022-08-24T11:18:04.272Z,77.95
2022-08-24T11:19:33.539Z,78.05
2022-08-24T11:20:49.793Z,78.01
2022-08-24T11:22:03.826Z,78.29
2022-08-24T11:23:31.771Z,78.53
2022-08-24T11:24:48.446Z,79.30
2022-08-24T11:26:10.331Z,79.61
2022-08-24T11:27:32.509Z,79.28
2022-08-24T11:28:54.118Z,79.52
2022-08-24T11:30:04.478Z,79.78
2022-08-24T11:31:18.532Z,79.78
2022-08-24T11:32:34.773Z,79.56
2022-08-24T11:34:07.175Z,79.37
2022-08-24T11:35:41.492Z,79.19
2022-08-24T11:36:48.427Z,78.93
2022-08-24T11:38:06.226Z,78.58
2022-08-24T11:39:37.892Z,78.24
2022-08-24T11:40:50.006Z,78.27
2022-08-24T11:42:11.121Z,78.42
2022-08-24T11:43:49.888Z,78.59
2022-08-24T11:45:27.538Z,78.54
2022-08-24T11:46:56.654Z,78.77
2022-08-24T11:48:29.689Z,78.68
2022-08-24T11:50:05.731Z,79.06
2022-08-24T11:51:25.620Z,79.01
2022-08-24T11:52:45.973Z,79.06
2022-08-24T11:54:20.905Z,79.09
2022-08-24T11:55:46.605Z,79.08
2022-08-24T11:57:19.425Z,79.59
2022-08-24T11:59:01.688Z,79.64
2022-08-24T12:00:21.314Z,79.76
2022-08-24T12:01:44.453Z,79.79
2022-08-24T12:03:34.631Z,79.84
2022-08-24T12:04:49.246Z,79.63
2022-08-24T12:06:28.377Z,79.55
2022-08-24T12:08:14.080Z,79.19
2022-08-24T12:09:39.763Z,79.22
2022-08-24T12:10:55.580Z,79.06
2022-08-24T12:12:21.325Z,79.08
2022-08-24T12:13:41.563Z,79.30
2022-08-24T12:15:03.009Z,79.31
2022-08-24T12:16:31.420Z,79.36
2022-08-24T12:17:41.594Z,79.29
2022-08-24T12:18:49.730Z,79.72
2022-08-24T12:20:06.178Z,80.38
2022-08-24T12:21:15.716Z,80.31
2022-08-24T12:22:23.627Z,80.43
2022-08-24T12:23:46.089Z,80.35
2022-08-24T12:24:58.793Z,80.20
2022-08-24T12:26:11.781Z,80.17
2022-08-24T12:27:25.576Z,80.19
2022-08-24T12:28:46.358Z,80.25
2022-08-24T12:30:10.308Z,80.31
2022-08-24T12:31:22.577Z,80.55
2022-08-24T12:32:31.514Z,80.52
2022-08-24T12:33:39.054Z,80.59
2022-08-24T12:34:59.387Z,80.57
2022-08-24T12:36:10.203Z,80.38
2022-08-24T12:37:34.366Z,80.29
2022-08-24T12:38:45.469Z,80.32
2022-08-24T12:40:06.014Z,80.21
2022-08-24T12:41:28.075Z,80.04
2022-08-24T12:43:02.689Z,80.08
2022-08-24T12:44:17.671Z,79.89
2022-08-24T12:45:26.044Z,79.85
2022-08-24T12:46:33.961Z,79.91
2022-08-24T12:48:05.277Z,80.07
2022-08-24T12:49:30.349Z,80.07
2022-08-24T12:51:08.715Z,80.41
2022-08-24T12:52:36.151Z,80.66
2022-08-24T12:54:09.272Z,80.49
2022-08-24T12:55:41.074Z,80.20
2022-08-24T12:57:02.593Z,80.08
2022-08-24T12:58:51.788Z,79.97
2022-08-24T13:00:11.945Z,80.29
2022-08-24T13:01:27.780Z,80.49
2022-08-24T13:02:48.306Z,80.55
2022-08-24T13:04:27.318Z,80.58
2022-08-24T13:05:57.201Z,80.59
2022-08-24T13:07:21.481Z,80.76
2022-08-24T13:08:52.396Z,80.80
2022-08-24T13:10:02.353Z,80.85
2022-08-24T13:11:18.064Z,80.75
2022-08-24T13:12:44.536Z,80.68
2022-08-24T13:14:15.275Z,80.51
2022-08-24T13:15:37.819Z,80.34
2022-08-24T13:16:51.373Z,80.47
2022-08-24T13:18:12.181Z,80.47
2022-08-24T13:19:26.059Z,80.54
2022-08-24T13:20:40.477Z,80.81
2022-08-24T13:21:57.896Z,81.06
2022-08-24T13:23:15.995Z,81.11
2022-08-24T13:24:32.357Z,81.05
2022-08-24T13:26:03.005Z,80.86
2022-08-24T13:27:17.688Z,80.71
2022-08-24T13:28:46.246Z,80.65
2022-08-24T13:30:16.678Z,80.50
2022-08-24T13:31:45.022Z,80.46
2022-08-24T13:33:01.643Z,80.26
2022-08-24T13:34:11.759Z,80.26
2022-08-24T13:35:57.213Z,80.23
2022-08-24T13:37:19.896Z,80.12
2022-08-24T13:38:29.769Z,80.13
2022-08-24T13:39:40.798Z,79.99
2022-08-24T13:40:52.314Z,79.80
2022-08-24T13:42:32.669Z,79.54
2022-08-24T13:44:21.021Z,79.29
2022-08-24T13:45:44.169Z,78.72
2022-08-24T13:47:07.219Z,78.32
2022-08-24T13:48:51.957Z,77.96
2022-08-24T13:50:13.488Z,77.80
2022-08-24T13:51:31.519Z,77.71
2022-08-24T13:52:49.808Z,77.84
2022-08-24T13:54:45.497Z,78.04
2022-08-24T13:55:57.498Z,78.00
2022-08-24T13:57:19.540Z,77.79
2022-08-24T13:58:50.468Z,77.59
2022-08-24T14:00:14.719Z,77.31
2022-08-24T14:01:35.521Z,77.11
2022-08-24T14:02:51.460Z,76.83
2022-08-24T14:04:26.222Z,76.77
2022-08-24T14:05:44.728Z,76.86
2022-08-24T14:07:15.953Z,76.84
2022-08-24T14:08:48.131Z,76.93
2022-08-24T14:10:35.874Z,76.86
2022-08-24T14:12:02.698Z,76.72
2022-08-24T14:13:30.621Z,76.43
2022-08-24T14:14:54.501Z,76.16
2022-08-24T14:16:30.511Z,75.88
2022-08-24T14:18:08.198Z,75.43
2022-08-24T14:19:22.268Z,75.13
2022-08-24T14:20:56.912Z,74.68
2022-08-24T14:22:31.805Z,74.42
2022-08-24T14:24:01.582Z,74.07
2022-08-24T14:25:25.736Z,73.63
2022-08-24T14:26:42.357Z,73.53
2022-08-24T14:28:05.084Z,73.44
2022-08-24T14:29:22.136Z,73.23
2022-08-24T14:30:30.046Z,72.99
2022-08-24T14:31:38.388Z,72.72
2022-08-24T14:33:04.898Z,72.65
2022-08-24T14:34:19.360Z,72.54
2022-08-24T14:35:37.975Z,72.48
2022-08-24T14:37:16.315Z,72.06
2022-08-24T14:38:46.593Z,71.22
2022-08-24T14:40:08.203Z,70.26
2022-08-24T14:41:23.795Z,69.26
2022-08-24T14:43:08.316Z,68.48
2022-08-24T14:44:49.351Z,66.93
2022-08-24T14:46:19.672Z,66.42
2022-08-24T14:48:01.930Z,65.52
2022-08-24T14:49:40.872Z,64.09
2022-08-24T14:51:19.435Z,61.88
2022-08-24T14:52:33.475Z,63.07
2022-08-24T14:54:14.903Z,62.32
2022-08-24T14:55:34.825Z,62.89
2022-08-24T14:57:12.021Z,62.86
2022-08-24T14:58:35.045Z,62.69
2022-08-24T15:00:02.419Z,60.47
2022-08-24T15:01:42.441Z,60.47
2022-08-24T15:03:18.155Z,58.84
2022-08-24T15:04:41.623Z,57.26
2022-08-24T15:06:26.841Z,56.78
2022-08-24T15:07:39.424Z,57.47
2022-08-24T15:08:49.636Z,56.42
2022-08-24T15:10:00.791Z,55.93
2022-08-24T15:11:14.768Z,55.64
2022-08-24T15:12:32.210Z,55.54
2022-08-24T15:14:22.613Z,56.03
2022-08-24T15:16:00.025Z,56.03
2022-08-24T15:17:30.874Z,55.61
2022-08-24T15:19:00.560Z,55.48
2022-08-24T15:20:21.878Z,55.84
2022-08-24T15:22:07.810Z,56.06
2022-08-24T15:23:37.294Z,55.96
2022-08-24T15:24:47.513Z,55.25
2022-08-24T15:26:06.252Z,55.43
2022-08-24T15:27:50.958Z,54.52
2022-08-24T15:29:00.057Z,52.84
2022-08-24T15:30:09.508Z,52.19
2022-08-24T15:31:22.706Z,51.05
2022-08-24T15:32:50.560Z,50.35
2022-08-24T15:34:06.450Z,49.47
2022-08-24T15:35:34.133Z,49.24
2022-08-24T15:36:45.830Z,48.78
2022-08-24T15:37:54.880Z,48.87
2022-08-24T15:39:03.602Z,48.99
2022-08-24T15:40:36.150Z,48.90
2022-08-24T15:41:51.828Z,48.61
2022-08-24T15:43:05.295Z,47.81
2022-08-24T15:44:29.710Z,47.79
2022-08-24T15:45:37.960Z,48.30
2022-08-24T15:46:50.285Z,47.91
2022-08-24T15:47:59.631Z,47.57
2022-08-24T15:49:22.050Z,48.14
2022-08-24T15:50:37.079Z,48.20
2022-08-24T15:51:45.863Z,48.54
2022-08-24T15:53:05.191Z,48.72
2022-08-24T15:54:33.239Z,48.89
2022-08-24T15:55:49.591Z,49.11
2022-08-24T15:57:08.378Z,47.76
2022-08-24T15:58:36.332Z,47.81
2022-08-24T15:59:44.171Z,47.88
2022-08-24T16:01:13.976Z,47.52
2022-08-24T16:02:31.842Z,47.33
2022-08-24T16:03:48.372Z,46.56
2022-08-24T16:05:42.293Z,45.96
2022-08-24T16:06:50.157Z,44.94
2022-08-24T16:08:14.083Z,43.70
2022-08-24T16:09:31.526Z,42.32
2022-08-24T16:10:58.700Z,42.14
2022-08-24T16:12:15.155Z,41.91
2022-08-24T16:13:26.211Z,40.57
2022-08-24T16:14:40.613Z,40.42
2022-08-24T16:15:59.243Z,40.07
2022-08-24T16:17:28.676Z,39.79
2022-08-24T16:18:59.878Z,40.68
2022-08-24T16:20:35.018Z,41.61
2022-08-24T16:22:07.496Z,42.42
2022-08-24T16:23:29.162Z,42.60
2022-08-24T16:24:40.910Z,42.58
2022-08-24T16:25:51.350Z,42.39
2022-08-24T16:27:17.411Z,42.50
2022-08-24T16:28:28.679Z,42.16
2022-08-24T16:29:40.093Z,42.00
2022-08-24T16:30:56.263Z,41.55
2022-08-24T16:32:32.333Z,41.17
2022-08-24T16:33:52.447Z,40.95
2022-08-24T16:35:19.653Z,40.47
2022-08-24T16:36:30.976Z,39.81
2022-08-24T16:37:41.300Z,39.71
2022-08-24T16:38:50.227Z,39.72
2022-08-24T16:39:57.915Z,39.75
2022-08-24T16:41:10.492Z,38.84
2022-08-24T16:42:27.393Z,38.50
2022-08-24T16:43:38.397Z,38.12
2022-08-24T16:44:47.175Z,38.56